Sheppard Air Force Base-Wichita Falls Municipal Airport
KSPS : now visible

Airfield :











YOU CAN JOIN US ON...

 
LOGIN :

Register | Disclaimer

   EN    FR    IT 

 









Legend :    VFR   Marginal VFR   IFR   Intensive IFR   Very Intensive IFR
Visi :
Ceiling :
>= 8 km
>= 3000ft
5 to 8 km
1000 to 3000 ft
1500m to 5 km
500 to 1000 ft
800 to 1500m
200 to 500 ft
< 800m
< 200 ft
Symbols :   Thunderstorms  Fog  Heavy snow  Heavy precipitations  Wind > 20 kt






- Airport Elevation : 1019 ft
- IATA code : SPS


KSPS - Sheppard Air Force Base-Wichita Falls Municipal

CURRENT METAR :
  • 232252Z 32007KT 10SM SCT095 BKN120 13/01 A3002 RMK AO2 SLP164 T01280011

EXPIRED METARs :
  • 232152Z 31009KT 10SM FEW060 BKN090 12/02 A3003 RMK AO2 SLP169 T01220017
  • 232052Z 27007KT 10SM SCT060 BKN090 12/03 A3004 RMK AO2 SLP171 T01170028 56016

TAF KSPS
Valid from the 23 at 18:00 until the 24 at 18:00 UTC


231720Z 2318/2418 35013KT P6SM BKN250
FM240000 30005KT P6SM FEW250



MET'MAP, your aeronautical weather chart ! - Copyright ORBIFLY December 2007 - Disclaimer

ORBIFLY MET'MAP TEAM :

Programming & Development : Alexandra Zaïnal
Concept & original design : Baudouin d'Aumeries
Assistance for programming : Marc-Olivier Méhu
Technical & hardware support : Manuel Goepfert

Contact : metmap@orbifly.com




SOURCES & CREDITS :

   NOAA       Earth
Advisory